createdAt,value
2018-12-01T00:00:34.182Z,19.10
2018-12-01T00:02:37.995Z,17.37
2018-12-01T00:04:41.886Z,16.33
2018-12-01T00:06:46.021Z,14.63
2018-12-01T00:08:49.991Z,14.90
2018-12-01T00:10:53.828Z,14.57
2018-12-01T00:12:57.740Z,13.70
2018-12-01T00:15:01.632Z,12.43
2018-12-01T00:17:05.475Z,11.93
2018-12-01T00:19:09.239Z,13.07
2018-12-01T00:21:13.427Z,11.83
2018-12-01T00:23:17.219Z,11.30
2018-12-01T00:25:20.984Z,11.00
2018-12-01T00:27:24.859Z,10.80
2018-12-01T00:29:28.666Z,11.27
2018-12-01T00:31:32.388Z,11.37
2018-12-01T00:33:36.279Z,10.90
2018-12-01T00:35:40.026Z,10.97
2018-12-01T00:37:44.073Z,10.30
2018-12-01T00:39:47.826Z,11.23
2018-12-01T00:41:51.604Z,10.23
2018-12-01T00:43:55.456Z,10.87
2018-12-01T00:45:59.217Z,11.10
2018-12-01T00:48:03.186Z,10.90
2018-12-01T00:50:10.270Z,11.43
2018-12-01T00:52:14.044Z,11.10
2018-12-01T00:54:17.817Z,9.73
2018-12-01T00:56:21.644Z,10.43
2018-12-01T00:58:25.612Z,11.00
2018-12-01T01:00:29.409Z,11.47
2018-12-01T01:02:33.194Z,9.90
2018-12-01T01:04:37.103Z,12.97
2018-12-01T01:06:40.920Z,11.80
2018-12-01T01:08:44.791Z,11.73
2018-12-01T01:10:48.606Z,10.80
2018-12-01T01:12:52.441Z,10.97
2018-12-01T01:14:56.318Z,11.30
2018-12-01T01:17:00.101Z,10.40
2018-12-01T01:19:04.018Z,10.20
2018-12-01T01:21:07.783Z,10.30
2018-12-01T01:23:11.613Z,9.67
2018-12-01T01:25:16.268Z,11.60
2018-12-01T01:27:20.046Z,10.83
2018-12-01T01:29:23.853Z,11.50
2018-12-01T01:31:27.565Z,11.27
2018-12-01T01:33:31.402Z,11.47
2018-12-01T01:35:35.135Z,11.73
2018-12-01T01:37:38.933Z,10.90
2018-12-01T01:39:42.762Z,11.70
2018-12-01T01:41:46.623Z,11.10
2018-12-01T01:43:50.600Z,11.60
2018-12-01T01:45:54.469Z,10.07
2018-12-01T01:47:58.366Z,11.77
2018-12-01T01:50:02.278Z,10.33
2018-12-01T01:52:06.402Z,11.73
2018-12-01T01:54:10.669Z,10.90
2018-12-01T01:56:14.523Z,11.67
2018-12-01T01:58:18.394Z,11.73
2018-12-01T02:00:22.588Z,12.30
2018-12-01T02:02:26.452Z,11.13
2018-12-01T02:04:30.471Z,11.60
2018-12-01T02:06:34.295Z,12.70
2018-12-01T02:08:39.887Z,12.83
2018-12-01T02:10:43.919Z,13.00
2018-12-01T02:12:48.361Z,12.30
2018-12-01T02:14:53.627Z,13.13
2018-12-01T02:16:57.451Z,12.90
2018-12-01T02:19:01.277Z,12.23
2018-12-01T02:21:05.364Z,12.13
2018-12-01T02:23:09.542Z,12.33
2018-12-01T02:25:15.391Z,11.90
2018-12-01T02:27:19.270Z,12.77
2018-12-01T02:29:23.223Z,13.03
2018-12-01T02:31:27.462Z,12.93
2018-12-01T02:33:31.470Z,12.90
2018-12-01T02:35:35.695Z,13.37
2018-12-01T02:37:39.810Z,13.77
2018-12-01T02:39:43.799Z,12.13
2018-12-01T02:41:47.721Z,11.83
2018-12-01T02:44:02.601Z,14.70
2018-12-01T02:46:17.594Z,12.40
2018-12-01T02:48:21.412Z,12.50
2018-12-01T02:50:26.144Z,13.90
2018-12-01T02:52:29.956Z,12.93
2018-12-01T02:54:34.436Z,13.07
2018-12-01T02:56:38.217Z,13.20
2018-12-01T02:58:42.023Z,13.33
2018-12-01T03:00:45.907Z,13.17
2018-12-01T03:02:49.782Z,12.47
2018-12-01T03:04:54.229Z,13.07
2018-12-01T03:06:58.136Z,13.90
2018-12-01T03:09:01.937Z,12.10
2018-12-01T03:11:05.772Z,12.53
2018-12-01T03:13:09.667Z,12.90
2018-12-01T03:15:14.804Z,12.83
2018-12-01T03:17:19.802Z,12.67
2018-12-01T03:19:23.665Z,12.03
2018-12-01T03:21:27.461Z,11.93
2018-12-01T03:23:31.218Z,11.30
2018-12-01T03:25:35.149Z,12.90
2018-12-01T03:27:39.170Z,11.93
2018-12-01T03:29:42.982Z,12.20
2018-12-01T03:31:46.804Z,12.50
2018-12-01T03:33:50.582Z,12.10
2018-12-01T03:35:54.364Z,12.23
2018-12-01T03:37:58.263Z,12.10
2018-12-01T03:40:03.036Z,13.17
2018-12-01T03:42:06.919Z,12.43
2018-12-01T03:44:10.815Z,12.40
2018-12-01T03:46:15.898Z,11.83
2018-12-01T03:48:19.886Z,11.20
2018-12-01T03:50:24.296Z,10.80
2018-12-01T03:52:28.140Z,12.37
2018-12-01T03:54:31.902Z,12.43
2018-12-01T03:56:35.739Z,12.20
2018-12-01T03:58:39.490Z,12.30
2018-12-01T04:00:46.687Z,13.43
2018-12-01T04:02:50.684Z,11.57
2018-12-01T04:04:55.070Z,13.40
2018-12-01T04:06:58.987Z,11.00
2018-12-01T04:09:34.401Z,11.23
2018-12-01T04:11:38.299Z,11.63
2018-12-01T04:13:42.278Z,10.50
2018-12-01T04:15:46.129Z,11.40
2018-12-01T04:17:50.162Z,10.93
2018-12-01T04:19:53.952Z,11.13
2018-12-01T04:21:57.848Z,10.30
2018-12-01T04:24:02.276Z,11.13
2018-12-01T04:26:06.808Z,9.73
2018-12-01T04:28:10.648Z,9.60
2018-12-01T04:30:20.859Z,10.50
2018-12-01T04:32:24.925Z,10.47
2018-12-01T04:34:28.803Z,10.10
2018-12-01T04:36:32.752Z,10.93
2018-12-01T04:38:36.584Z,10.87
2018-12-01T04:40:40.469Z,10.50
2018-12-01T04:42:44.931Z,11.70
2018-12-01T04:44:48.724Z,11.23
2018-12-01T04:46:52.573Z,9.57
2018-12-01T04:48:56.512Z,11.60
2018-12-01T04:51:00.417Z,11.63
2018-12-01T04:53:04.356Z,11.53
2018-12-01T04:55:10.350Z,12.07
2018-12-01T04:57:14.240Z,12.40
2018-12-01T04:59:18.210Z,12.37
2018-12-01T05:01:22.471Z,11.50
2018-12-01T05:03:26.305Z,12.17
2018-12-01T05:05:30.391Z,17.83
2018-12-01T05:07:34.634Z,23.00
2018-12-01T05:09:38.534Z,15.97
2018-12-01T05:11:42.298Z,13.63
2018-12-01T05:13:46.750Z,12.43
2018-12-01T05:15:50.582Z,11.00
2018-12-01T05:17:54.456Z,12.07
2018-12-01T05:19:58.345Z,11.27
2018-12-01T05:22:02.374Z,10.40
2018-12-01T05:24:06.469Z,11.10
2018-12-01T05:26:10.289Z,11.80
2018-12-01T05:28:14.253Z,12.37
2018-12-01T05:30:18.111Z,11.53
2018-12-01T05:32:21.878Z,12.00
2018-12-01T05:34:25.737Z,10.77
2018-12-01T05:36:31.344Z,9.37
2018-12-01T05:38:36.363Z,10.67
2018-12-01T05:40:40.230Z,10.10
2018-12-01T05:42:44.033Z,8.80
2018-12-01T05:44:47.893Z,10.97
2018-12-01T05:46:51.701Z,9.30
2018-12-01T05:48:55.616Z,10.57
2018-12-01T05:50:59.466Z,9.60
2018-12-01T05:53:04.026Z,10.00
2018-12-01T05:55:11.199Z,9.70
2018-12-01T05:57:15.908Z,9.37
2018-12-01T05:59:19.722Z,10.03
2018-12-01T06:01:25.466Z,8.60
2018-12-01T06:03:29.322Z,10.53
2018-12-01T06:05:33.420Z,10.60
2018-12-01T06:07:38.102Z,9.93
2018-12-01T06:09:42.288Z,9.50
2018-12-01T06:11:46.119Z,9.03
2018-12-01T06:13:49.950Z,8.73
2018-12-01T06:15:54.858Z,9.47
2018-12-01T06:17:58.749Z,8.97
2018-12-01T06:20:02.622Z,8.10
2018-12-01T06:22:07.583Z,9.10
2018-12-01T06:24:11.945Z,11.20
2018-12-01T06:26:15.747Z,10.33
2018-12-01T06:28:19.558Z,9.83
2018-12-01T06:30:23.600Z,8.20
2018-12-01T06:32:27.408Z,8.37
2018-12-01T06:34:32.038Z,8.60
2018-12-01T06:36:35.852Z,9.07
2018-12-01T06:38:40.708Z,9.03
2018-12-01T06:40:44.651Z,9.20
2018-12-01T06:42:48.810Z,8.17
2018-12-01T06:44:52.874Z,7.90
2018-12-01T06:46:56.810Z,8.40
2018-12-01T06:49:00.651Z,8.37
2018-12-01T06:51:05.050Z,9.23
2018-12-01T06:53:09.249Z,7.57
2018-12-01T06:55:14.055Z,8.10
2018-12-01T06:57:17.912Z,7.80
2018-12-01T06:59:23.880Z,7.87
2018-12-01T07:01:28.150Z,7.30
2018-12-01T07:03:32.007Z,7.40
2018-12-01T07:05:35.849Z,8.20
2018-12-01T07:07:40.816Z,6.70
2018-12-01T07:09:44.747Z,6.93
2018-12-01T07:11:48.566Z,7.17
2018-12-01T07:13:52.383Z,7.90
2018-12-01T07:16:01.898Z,7.10
2018-12-01T07:18:17.553Z,7.57
2018-12-01T07:20:21.427Z,7.07
2018-12-01T07:22:25.428Z,8.03
2018-12-01T07:24:29.374Z,7.03
2018-12-01T07:26:34.245Z,6.23
2018-12-01T07:28:38.139Z,8.30
2018-12-01T07:30:42.140Z,5.97
2018-12-01T07:32:49.192Z,7.40
2018-12-01T07:34:54.264Z,8.30
2018-12-01T07:36:58.321Z,6.70
2018-12-01T07:39:02.161Z,8.10
2018-12-01T07:41:06.735Z,7.90
2018-12-01T07:43:12.967Z,8.80
2018-12-01T07:45:17.222Z,9.10
2018-12-01T07:47:22.176Z,9.13
2018-12-01T07:49:26.365Z,9.43
2018-12-01T07:51:30.272Z,8.20
2018-12-01T07:53:34.853Z,9.03
2018-12-01T07:55:39.405Z,10.00
2018-12-01T07:57:43.371Z,9.53
2018-12-01T07:59:49.127Z,8.77
2018-12-01T08:01:52.976Z,9.07
2018-12-01T08:03:56.875Z,10.83
2018-12-01T08:06:00.940Z,11.63
2018-12-01T08:08:05.039Z,10.87
2018-12-01T08:10:13.593Z,9.27
2018-12-01T08:12:17.466Z,10.40
2018-12-01T08:14:21.386Z,11.00
2018-12-01T08:16:26.619Z,12.43
2018-12-01T08:18:32.573Z,10.97
2018-12-01T08:20:36.609Z,10.80
2018-12-01T08:22:40.544Z,9.20
2018-12-01T08:24:46.221Z,10.80
2018-12-01T08:26:50.265Z,10.53
2018-12-01T08:28:54.212Z,11.53
2018-12-01T08:30:58.883Z,11.00
2018-12-01T08:33:03.183Z,10.77
2018-12-01T08:35:07.372Z,10.30
2018-12-01T08:37:11.268Z,11.60
2018-12-01T08:39:15.362Z,11.33
2018-12-01T08:41:20.285Z,9.87
2018-12-01T08:43:24.256Z,10.83
2018-12-01T08:45:28.591Z,9.67
2018-12-01T08:47:33.176Z,11.90
2018-12-01T08:49:36.947Z,9.40
2018-12-01T08:51:40.861Z,12.23
2018-12-01T08:53:44.830Z,18.77
2018-12-01T08:55:48.817Z,28.90
2018-12-01T08:57:53.391Z,18.67
2018-12-01T08:59:57.472Z,22.20
2018-12-01T09:02:02.782Z,34.57
2018-12-01T09:04:07.904Z,25.40
2018-12-01T09:06:12.059Z,13.60
2018-12-01T09:08:15.923Z,14.57
2018-12-01T09:10:20.439Z,10.60
2018-12-01T09:12:24.425Z,9.57
2018-12-01T09:14:28.272Z,10.07
2018-12-01T09:16:33.180Z,8.87
2018-12-01T09:18:38.073Z,14.00
2018-12-01T09:20:41.893Z,10.77
2018-12-01T09:22:46.429Z,9.50
2018-12-01T09:24:50.248Z,7.00
2018-12-01T09:26:54.761Z,6.63
2018-12-01T09:28:58.665Z,6.67
2018-12-01T09:31:02.506Z,8.07
2018-12-01T09:33:06.761Z,10.67
2018-12-01T09:35:10.618Z,6.47
2018-12-01T09:37:14.508Z,7.33
2018-12-01T09:39:18.983Z,9.53
2018-12-01T09:41:22.843Z,10.23
2018-12-01T09:43:26.702Z,8.13
2018-12-01T09:45:30.634Z,11.33
2018-12-01T09:47:34.541Z,10.23
2018-12-01T09:49:38.318Z,7.77
2018-12-01T09:51:42.222Z,7.77
2018-12-01T09:53:46.980Z,9.23
2018-12-01T09:55:51.174Z,8.00
2018-12-01T09:57:56.699Z,7.53
2018-12-01T10:00:06.946Z,6.57
2018-12-01T10:02:19.100Z,7.03
2018-12-01T10:04:23.217Z,8.03
2018-12-01T10:06:27.771Z,8.23
2018-12-01T10:11:12.154Z,7.60
2018-12-01T10:13:16.096Z,6.93
2018-12-01T10:15:27.141Z,8.20
2018-12-01T10:17:31.162Z,7.93
2018-12-01T10:19:35.108Z,8.30
2018-12-01T10:21:39.116Z,9.03
2018-12-01T10:23:43.683Z,7.33
2018-12-01T10:25:48.078Z,6.50
2018-12-01T10:27:52.928Z,9.60
2018-12-01T10:29:57.029Z,6.73
2018-12-01T10:32:02.586Z,7.03
2018-12-01T10:34:09.761Z,6.43
2018-12-01T10:36:14.311Z,6.87
2018-12-01T10:38:19.096Z,8.07
2018-12-01T10:40:23.001Z,8.50
2018-12-01T10:42:36.543Z,8.50
2018-12-01T10:44:40.721Z,6.60
2018-12-01T10:46:44.581Z,6.03
2018-12-01T10:48:48.879Z,7.23
2018-12-01T10:50:57.431Z,6.83
2018-12-01T10:53:01.469Z,7.43
2018-12-01T10:55:09.688Z,7.90
2018-12-01T10:57:13.549Z,6.83
2018-12-01T10:59:18.812Z,6.20
2018-12-01T11:01:32.824Z,6.60
2018-12-01T11:03:42.309Z,7.70
2018-12-01T11:05:47.504Z,6.50
2018-12-01T11:07:51.366Z,6.83
2018-12-01T11:09:56.032Z,5.90
2018-12-01T11:12:00.908Z,7.00
2018-12-01T11:14:05.154Z,5.53
2018-12-01T11:16:09.445Z,5.50
2018-12-01T11:18:14.105Z,5.97
2018-12-01T11:20:19.513Z,8.10
2018-12-01T11:22:23.571Z,5.50
2018-12-01T11:24:30.029Z,6.00
2018-12-01T11:26:34.114Z,5.60
2018-12-01T11:28:41.249Z,5.10
2018-12-01T11:30:45.299Z,5.87
2018-12-01T11:32:51.863Z,5.47
2018-12-01T11:34:56.643Z,5.60
2018-12-01T11:37:01.495Z,5.13
2018-12-01T11:39:08.107Z,5.60
2018-12-01T11:41:12.774Z,4.20
2018-12-01T11:43:16.766Z,6.47
2018-12-01T11:45:30.229Z,6.23
2018-12-01T11:47:34.364Z,6.90
2018-12-01T11:49:38.473Z,6.83
2018-12-01T11:51:42.662Z,5.77
2018-12-01T11:53:46.942Z,5.67
2018-12-01T11:55:51.018Z,4.00
2018-12-01T11:57:55.425Z,5.20
2018-12-01T12:00:00.041Z,4.07
2018-12-01T12:02:04.025Z,4.00
2018-12-01T12:04:07.988Z,3.83
2018-12-01T12:06:12.001Z,3.50
2018-12-01T12:08:24.183Z,3.40
2018-12-01T12:10:28.148Z,5.20
2018-12-01T12:12:32.311Z,4.33
2018-12-01T12:14:36.479Z,3.70
2018-12-01T12:16:40.407Z,4.63
2018-12-01T12:18:44.304Z,4.03
2018-12-01T12:20:48.925Z,3.17
2018-12-01T12:22:53.605Z,3.70
2018-12-01T12:24:57.564Z,4.33
2018-12-01T12:27:01.672Z,4.60
2018-12-01T12:29:06.386Z,3.40
2018-12-01T12:31:10.416Z,3.80
2018-12-01T12:33:15.390Z,3.20
2018-12-01T12:35:20.382Z,3.17
2018-12-01T12:37:28.208Z,2.97
2018-12-01T12:39:33.314Z,4.20
2018-12-01T12:41:37.637Z,3.40
2018-12-01T12:43:41.616Z,3.37
2018-12-01T12:45:48.933Z,4.00
2018-12-01T12:47:52.998Z,3.57
2018-12-01T12:49:57.149Z,3.43
2018-12-01T12:52:01.560Z,3.73
2018-12-01T12:54:10.290Z,3.27
2018-12-01T12:56:14.863Z,3.33
2018-12-01T12:58:18.922Z,3.33
2018-12-01T13:00:23.792Z,3.90
2018-12-01T13:02:30.018Z,2.97
2018-12-01T13:04:33.888Z,3.23
2018-12-01T13:06:38.408Z,3.40
2018-12-01T13:08:42.798Z,3.10
2018-12-01T13:10:49.109Z,2.90
2018-12-01T13:12:55.734Z,2.80
2018-12-01T13:15:01.212Z,3.50
2018-12-01T13:17:05.554Z,3.10
2018-12-01T13:19:09.559Z,2.73
2018-12-01T13:21:14.306Z,3.00
2018-12-01T13:23:19.265Z,4.13
2018-12-01T13:25:23.709Z,3.17
2018-12-01T13:27:27.668Z,3.30
2018-12-01T13:29:32.576Z,3.50
2018-12-01T13:31:36.688Z,3.17
2018-12-01T13:33:41.140Z,3.43
2018-12-01T13:35:45.027Z,3.87
2018-12-01T13:37:49.901Z,3.80
2018-12-01T13:39:54.074Z,4.60
2018-12-01T13:41:57.955Z,4.47
2018-12-01T13:44:01.824Z,5.10
2018-12-01T13:46:06.676Z,6.93
2018-12-01T13:48:10.767Z,5.10
2018-12-01T13:50:16.652Z,4.00
2018-12-01T13:52:20.824Z,4.27
2018-12-01T13:54:28.123Z,5.07
2018-12-01T13:56:31.996Z,4.30
2018-12-01T13:58:35.859Z,5.63
2018-12-01T14:00:40.322Z,5.70
2018-12-01T14:02:47.252Z,5.00
2018-12-01T14:04:51.167Z,6.03
2018-12-01T14:06:55.161Z,4.17
2018-12-01T14:08:59.204Z,4.80
2018-12-01T14:11:03.915Z,3.33
2018-12-01T14:13:09.980Z,4.73
2018-12-01T14:15:21.543Z,3.63
2018-12-01T14:17:25.761Z,3.03
2018-12-01T14:19:29.653Z,3.23
2018-12-01T14:21:33.545Z,3.13
2018-12-01T14:23:37.578Z,2.90
2018-12-01T14:25:41.665Z,3.00
2018-12-01T14:27:52.817Z,2.40
2018-12-01T14:29:57.040Z,2.70
2018-12-01T14:32:02.334Z,2.60
2018-12-01T14:34:10.082Z,3.00
2018-12-01T14:36:13.985Z,2.50
2018-12-01T14:38:18.907Z,2.60
2018-12-01T14:40:22.802Z,2.70
2018-12-01T14:42:27.237Z,2.80
2018-12-01T14:44:31.131Z,2.80
2018-12-01T14:46:35.952Z,4.60
2018-12-01T14:48:39.848Z,3.10
2018-12-01T14:50:48.534Z,3.30
2018-12-01T14:52:48.024Z,3.27
2018-12-01T14:54:54.283Z,2.80
2018-12-01T14:56:59.378Z,2.93
2018-12-01T14:59:03.368Z,3.10
2018-12-01T15:01:07.293Z,2.43
2018-12-01T15:03:15.200Z,2.30
2018-12-01T15:05:20.344Z,3.30
2018-12-01T15:07:24.282Z,2.90
2018-12-01T15:09:28.195Z,2.77
2018-12-01T15:11:32.274Z,3.00
2018-12-01T15:13:36.142Z,2.63
2018-12-01T15:15:40.048Z,3.20
2018-12-01T15:17:44.271Z,2.57
2018-12-01T15:19:55.743Z,2.87
2018-12-01T15:21:59.655Z,3.20
2018-12-01T15:24:03.603Z,3.20
2018-12-01T15:26:07.974Z,3.13
2018-12-01T15:28:11.881Z,3.60
2018-12-01T15:30:16.854Z,2.97
2018-12-01T15:32:20.821Z,3.87
2018-12-01T15:34:26.852Z,2.87
2018-12-01T15:36:30.857Z,3.30
2018-12-01T15:38:34.909Z,3.93
2018-12-01T15:40:41.654Z,4.27
2018-12-01T15:42:51.315Z,4.80
2018-12-01T15:44:55.202Z,4.20
2018-12-01T15:46:59.171Z,4.80
2018-12-01T15:49:03.336Z,4.93
2018-12-01T15:51:11.591Z,4.83
2018-12-01T15:53:16.036Z,4.37
2018-12-01T15:55:20.431Z,4.60
2018-12-01T15:57:24.415Z,3.70
2018-12-01T15:59:30.232Z,3.93
2018-12-01T16:01:34.150Z,4.43
2018-12-01T16:03:38.642Z,4.00
2018-12-01T16:05:42.454Z,5.13
2018-12-01T16:07:46.566Z,4.03
2018-12-01T16:09:50.528Z,3.70
2018-12-01T16:11:54.633Z,4.20
2018-12-01T16:13:58.790Z,3.73
2018-12-01T16:16:06.115Z,3.97
2018-12-01T16:18:10.541Z,3.87
2018-12-01T16:20:15.310Z,4.00
2018-12-01T16:22:19.447Z,3.83
2018-12-01T16:24:23.383Z,4.90
2018-12-01T16:26:27.189Z,3.90
2018-12-01T16:28:31.695Z,4.27
2018-12-01T16:30:38.621Z,3.80
2018-12-01T16:32:42.425Z,4.13
2018-12-01T16:34:46.219Z,4.93
2018-12-01T16:36:50.090Z,4.60
2018-12-01T16:38:54.033Z,3.83
2018-12-01T16:41:00.348Z,4.17
2018-12-01T16:43:10.799Z,4.13
2018-12-01T16:45:15.529Z,4.13
2018-12-01T16:47:19.550Z,4.40
2018-12-01T16:49:23.516Z,4.60
2018-12-01T16:51:27.364Z,4.10
2018-12-01T16:53:32.225Z,4.07
2018-12-01T16:55:36.156Z,4.80
2018-12-01T16:57:40.219Z,4.33
2018-12-01T16:59:44.201Z,5.00
2018-12-01T17:01:51.130Z,4.50
2018-12-01T17:03:55.037Z,4.40
2018-12-01T17:06:00.528Z,4.67
2018-12-01T17:08:04.501Z,4.80
2018-12-01T17:10:16.203Z,3.83
2018-12-01T17:12:20.108Z,4.37
2018-12-01T17:14:24.909Z,4.33
2018-12-01T17:16:28.859Z,4.30
2018-12-01T17:18:33.535Z,4.23
2018-12-01T17:20:37.586Z,4.27
2018-12-01T17:22:42.525Z,5.70
2018-12-01T17:24:46.488Z,4.93
2018-12-01T17:26:50.651Z,4.43
2018-12-01T17:28:54.500Z,5.03
2018-12-01T17:30:58.363Z,4.40
2018-12-01T17:33:02.713Z,4.50
2018-12-01T17:35:10.122Z,4.37
2018-12-01T17:37:14.827Z,4.20
2018-12-01T17:39:18.724Z,4.80
2018-12-01T17:41:26.238Z,3.90
2018-12-01T17:43:44.172Z,3.63
2018-12-01T17:45:48.100Z,3.97
2018-12-01T17:47:52.056Z,3.60
2018-12-01T17:49:55.936Z,3.43
2018-12-01T17:52:00.597Z,3.70
2018-12-01T17:54:08.977Z,3.70
2018-12-01T17:56:12.848Z,3.53
2018-12-01T17:58:16.772Z,3.80
2018-12-01T18:00:23.456Z,3.80
2018-12-01T18:02:28.420Z,3.00
2018-12-01T18:04:32.283Z,3.43
2018-12-01T18:06:36.165Z,3.60
2018-12-01T18:08:40.632Z,3.77
2018-12-01T18:10:47.333Z,3.00
2018-12-01T18:12:51.223Z,4.40
2018-12-01T18:14:55.042Z,3.73
2018-12-01T18:16:58.938Z,3.40
2018-12-01T18:19:02.800Z,3.47
2018-12-01T18:21:06.735Z,3.10
2018-12-01T18:23:14.523Z,3.30
2018-12-01T18:25:18.420Z,3.10
2018-12-01T18:27:23.092Z,3.60
2018-12-01T18:29:30.675Z,3.60
2018-12-01T18:31:42.141Z,3.03
2018-12-01T18:33:51.380Z,3.60
2018-12-01T18:35:55.246Z,3.10
2018-12-01T18:38:00.321Z,3.20
2018-12-01T18:40:09.016Z,3.60
2018-12-01T18:42:15.133Z,3.30
2018-12-01T18:44:19.182Z,3.50
2018-12-01T18:46:23.518Z,3.90
2018-12-01T18:48:27.383Z,3.70
2018-12-01T18:50:31.308Z,2.80
2018-12-01T18:52:35.434Z,3.73
2018-12-01T18:54:40.548Z,3.80
2018-12-01T18:56:44.755Z,4.07
2018-12-01T18:58:48.601Z,3.57
2018-12-01T19:00:54.847Z,3.40
2018-12-01T19:02:58.765Z,2.80
2018-12-01T19:05:05.034Z,3.17
2018-12-01T19:07:08.881Z,2.87
2018-12-01T19:09:13.211Z,3.00
2018-12-01T19:11:17.324Z,3.37
2018-12-01T19:13:21.629Z,3.30
2018-12-01T19:15:25.834Z,3.50
2018-12-01T19:17:29.739Z,3.53
2018-12-01T19:19:34.644Z,3.10
2018-12-01T19:21:39.735Z,3.10
2018-12-01T19:23:43.805Z,2.63
2018-12-01T19:25:49.063Z,2.90
2018-12-01T19:27:55.131Z,2.90
2018-12-01T19:30:04.844Z,2.90
2018-12-01T19:32:03.062Z,2.53
2018-12-01T19:34:07.353Z,2.80
2018-12-01T19:36:11.742Z,2.80
2018-12-01T19:38:17.470Z,3.00
2018-12-01T19:40:28.579Z,2.57
2018-12-01T19:42:29.411Z,2.90
2018-12-01T19:44:33.627Z,2.63
2018-12-01T19:46:37.436Z,3.17
2018-12-01T19:48:41.377Z,3.27
2018-12-01T19:50:45.352Z,3.03
2018-12-01T19:52:50.401Z,3.23
2018-12-01T19:54:54.383Z,2.40
2018-12-01T19:56:58.249Z,2.73
2018-12-01T19:59:02.180Z,2.50
2018-12-01T20:01:07.787Z,3.30
2018-12-01T20:03:13.906Z,3.50
2018-12-01T20:05:18.649Z,3.63
2018-12-01T20:07:22.400Z,3.20
2018-12-01T20:09:26.359Z,3.30
2018-12-01T20:11:30.152Z,4.37
2018-12-01T20:13:40.598Z,3.60
2018-12-01T20:15:48.174Z,4.00
2018-12-01T20:17:52.287Z,3.40
2018-12-01T20:19:56.239Z,2.77
2018-12-01T20:22:01.143Z,3.80
2018-12-01T20:24:05.774Z,3.77
2018-12-01T20:26:10.032Z,3.23
2018-12-01T20:28:14.399Z,3.00
2018-12-01T20:30:20.449Z,3.10
2018-12-01T20:32:24.385Z,3.07
2018-12-01T20:34:28.233Z,3.17
2018-12-01T20:36:46.914Z,3.47
2018-12-01T20:39:54.512Z,3.10
2018-12-01T20:41:58.364Z,3.33
2018-12-01T20:44:02.243Z,2.93
2018-12-01T20:46:07.068Z,3.23
2018-12-01T20:48:10.832Z,3.20
2018-12-01T20:50:16.603Z,3.30
2018-12-01T20:52:20.370Z,3.70
2018-12-01T20:54:35.216Z,3.17
2018-12-01T20:56:40.550Z,3.60
2018-12-01T20:58:44.459Z,3.63
2018-12-01T21:00:48.289Z,2.90
2018-12-01T21:02:54.706Z,3.63
2018-12-01T21:04:58.674Z,3.80
2018-12-01T21:07:02.758Z,4.20
2018-12-01T21:09:09.586Z,2.97
2018-12-01T21:11:14.958Z,4.13
2018-12-01T21:13:18.826Z,4.47
2018-12-01T21:15:22.874Z,3.97
2018-12-01T21:17:27.085Z,4.87
2018-12-01T21:19:30.945Z,4.07
2018-12-01T21:21:34.914Z,3.50
2018-12-01T21:23:38.800Z,6.27
2018-12-01T21:25:43.112Z,5.10
2018-12-01T21:27:48.152Z,4.30
2018-12-01T21:29:52.711Z,4.50
2018-12-01T21:31:56.624Z,6.83
2018-12-01T21:34:00.495Z,5.03
2018-12-01T21:36:04.980Z,2.97
2018-12-01T21:38:12.527Z,3.23
2018-12-01T21:40:18.860Z,3.03
2018-12-01T21:42:22.811Z,3.50
2018-12-01T21:44:27.183Z,2.67
2018-12-01T21:46:31.030Z,2.80
2018-12-01T21:48:35.067Z,2.60
2018-12-01T21:50:39.590Z,2.70
2018-12-01T21:52:45.226Z,2.87
2018-12-01T21:54:49.436Z,2.50
2018-12-01T21:56:53.364Z,2.67
2018-12-01T21:58:57.391Z,3.20
2018-12-01T22:01:02.237Z,3.07
2018-12-01T22:03:08.392Z,3.53
2018-12-01T22:05:14.047Z,2.60
2018-12-01T22:07:17.947Z,3.17
2018-12-01T22:09:21.915Z,2.50
2018-12-01T22:11:26.735Z,2.10
2018-12-01T22:13:30.636Z,2.40
2018-12-01T22:15:34.696Z,2.50
2018-12-01T22:17:39.287Z,2.30
2018-12-01T22:19:43.286Z,3.00
2018-12-01T22:21:47.143Z,2.40
2018-12-01T22:23:51.143Z,2.50
2018-12-01T22:25:57.437Z,2.70
2018-12-01T22:28:01.302Z,4.40
2018-12-01T22:30:16.723Z,2.30
2018-12-01T22:32:20.527Z,2.33
2018-12-01T22:34:24.852Z,2.40
2018-12-01T22:36:29.747Z,2.57
2018-12-01T22:38:33.627Z,2.40
2018-12-01T22:40:38.129Z,4.07
2018-12-01T22:42:44.350Z,3.20
2018-12-01T22:44:48.392Z,2.40
2018-12-01T22:46:52.291Z,2.60
2018-12-01T22:48:56.185Z,2.53
2018-12-01T22:51:00.434Z,2.57
2018-12-01T22:53:04.388Z,2.80
2018-12-01T22:55:12.715Z,2.90
2018-12-01T22:57:18.453Z,4.70
2018-12-01T22:59:22.314Z,3.00
2018-12-01T23:01:27.612Z,2.00
2018-12-01T23:03:34.479Z,2.20
2018-12-01T23:05:38.575Z,2.60
2018-12-01T23:07:42.378Z,2.53
2018-12-01T23:09:46.763Z,2.50
2018-12-01T23:11:50.661Z,2.10
2018-12-01T23:13:55.337Z,2.70
2018-12-01T23:15:59.272Z,2.20
2018-12-01T23:18:04.715Z,1.97
2018-12-01T23:20:12.384Z,2.20
2018-12-01T23:22:16.281Z,2.13
2018-12-01T23:24:20.075Z,2.47
2018-12-01T23:26:24.429Z,1.80
2018-12-01T23:28:31.268Z,2.67
2018-12-01T23:30:35.279Z,1.90
2018-12-01T23:32:39.256Z,1.90
2018-12-01T23:34:44.950Z,1.93
2018-12-01T23:36:49.816Z,2.20
2018-12-01T23:38:54.709Z,2.30
2018-12-01T23:40:58.643Z,2.00
2018-12-01T23:43:03.114Z,2.20
2018-12-01T23:45:16.302Z,2.23
2018-12-01T23:47:21.580Z,2.30
2018-12-01T23:49:25.709Z,2.70
2018-12-01T23:51:29.612Z,2.40
2018-12-01T23:53:33.587Z,2.97
2018-12-01T23:55:38.561Z,2.20
2018-12-01T23:57:42.511Z,2.23
2018-12-01T23:59:47.460Z,2.03
